HTDAHTMW

Guest
Details From HTDA - MWALIMU JULIUS K NYERERE INTL
To HTMW - MWANZA
Flight Number -
Tags generated
Created
Modified
Stats Distance 462 nm / 856 km
Max Altitude 34,000 ft / 10,363 m
Waypoints 6
Social Downloads 1
Likes 0
Share VATSIM

Download

Looking for another format? Having issues loading an existing format? Contact us
Advertisement - Login to hide

Notes

Basic altitude profile: - Ascent Rate: 2500ft/min - Ascent Speed: 300kts - Cruise Altitude: 32000ft - Cruise Speed: 360kts - Descent Rate: 1500ft/min - Descent Speed: 150kts Options: - Use NATs: yes - Use PACOTS: yes - Use low airways: yes - Use high airways: yes

Route

HTDA GERUB UW305 MZ HTMW

ID Type Via Altitude Latitude Longitude Leg Dist Tot Dist Heading (true) Name
O HTDA APT - 0 ft / 0 m -6.87505˚ 39.20426˚ - 0 nm - MWALIMU JULIUS K NYERERE INTL
GERUB FIX - 20,400 ft / 6,218 m -6.17136˚ 38.48888˚ 60 nm 60 nm 315° / 315° -
ITSOK FIX UW305 (AWY-HI) 34,000 ft / 10,363 m -4.48235˚ 35.95576˚ 182 nm 242 nm 304° / 304° -
NIDEX FIX UW305 (AWY-HI) 34,000 ft / 10,363 m -4.25237˚ 35.61075˚ 24 nm 267 nm 304° / 304° -
MZ NDB UW305 (AWY-HI) 24,500 ft / 7,468 m -2.44219˚ 32.92394˚ 194 nm 461 nm 304° / 304° MWANZA NDB
O HTMW APT - 0 ft / 0 m -2.44448˚ 32.93266˚ 0 nm 462 nm 105° / 105° MWANZA

Altitude Profile

Advertisement - Login to hide

Weather


0- 5 10 15 20 25 30 35+ Temperature / ° C

Clouds and Precipitation
Forecast for 2017-12-11 12:00 UTC. Updated 38 minutes ago

Ground ~20,000 ft ~40,000 ft Winds

HTDA

Details ICAO HTDA (DAR)
Name MWALIMU JULIUS K NYERERE INTL
Region Tanzania
Timezone Africa/Dar_es_Salaam (UTC+3.0)
Stats Elevation 182 ft / 55 m (AMSL)
Location -6.875048° 39.204265°
Runways 2
Magnetic Variation 2.128° W

METAR

HTDA 111100Z 02018KT 9999 VCSH SCT018 BKN020 31/24 Q1012 NOSIG

Decode

TAF

TAF HTDA 110500Z 1106/1212 02015KT 9999 BKN015 FEW016CB TEMPO 1108/1110 TS/SHRA BECMG 1114/1117 SCT021

Decode

Departure Runways

ID Width Length Bearing (true) Bearing (mag) Surface Threshold Offset Overrun Length
05 151 ft / 46 m 9,868 ft / 3,008 m 44.94° 47.07° Asphalt 0 ft / 0 m 197 ft / 60 m
14 98 ft / 30 m 3,303 ft / 1,007 m 135.15° 137.28° Asphalt 0 ft / 0 m 0 ft / 0 m
23 151 ft / 46 m 9,868 ft / 3,008 m 224.94° 227.07° Asphalt 0 ft / 0 m 197 ft / 60 m
32 98 ft / 30 m 3,303 ft / 1,007 m 315.15° 317.28° Asphalt 0 ft / 0 m 299 ft / 91 m

HTMW

Details ICAO HTMW (MWZ)
Name MWANZA
Region Tanzania
Timezone Africa/Dar_es_Salaam (UTC+3.0)
Stats Elevation 3,763 ft / 1,147 m (AMSL)
Location -2.444485° 32.932665°
Runways 1
Magnetic Variation 0.866° E

METAR

HTMW 111100Z 00000KT 9999 BKN026 FEW027CB 27/19 Q1015 NOSIG

Decode

TAF

Not found

Destination Runways

ID Width Length Bearing (true) Bearing (mag) Surface Threshold Offset Overrun Length
12 148 ft / 45 m 10,223 ft / 3,116 m 116.54° 115.67° Asphalt 300 ft / 91 m 615 ft / 187 m
30 148 ft / 45 m 10,223 ft / 3,116 m 296.54° 295.67° Asphalt 0 ft / 0 m 0 ft / 0 m

Popular Alternatives